createdAt,value
2022-09-10T00:00:32.347Z,89
2022-09-10T00:01:32.487Z,89
2022-09-10T00:02:32.445Z,89
2022-09-10T00:03:32.368Z,89
2022-09-10T00:04:32.366Z,89
2022-09-10T00:05:32.363Z,89
2022-09-10T00:06:32.428Z,89
2022-09-10T00:07:32.396Z,89
2022-09-10T00:08:32.385Z,89
2022-09-10T00:09:32.384Z,89
2022-09-10T00:10:32.489Z,89
2022-09-10T00:11:32.487Z,89
2022-09-10T00:12:32.396Z,89
2022-09-10T00:13:32.377Z,89
2022-09-10T00:14:32.355Z,89
2022-09-10T00:15:32.406Z,89
2022-09-10T00:16:32.593Z,89
2022-09-10T00:17:32.353Z,89
2022-09-10T00:18:32.355Z,89
2022-09-10T00:19:32.399Z,89
2022-09-10T00:20:32.415Z,89
2022-09-10T00:21:32.403Z,89
2022-09-10T00:22:32.360Z,89
2022-09-10T00:23:32.394Z,89
2022-09-10T00:24:32.397Z,89
2022-09-10T00:25:32.371Z,89
2022-09-10T00:26:32.365Z,89
2022-09-10T00:27:32.391Z,89
2022-09-10T00:28:32.393Z,89
2022-09-10T00:29:32.375Z,89
2022-09-10T00:30:32.367Z,89
2022-09-10T00:31:32.429Z,89
2022-09-10T00:32:32.376Z,89
2022-09-10T00:33:32.543Z,89
2022-09-10T00:34:32.372Z,89
2022-09-10T00:35:32.387Z,89
2022-09-10T00:36:32.354Z,89
2022-09-10T00:37:32.392Z,89
2022-09-10T00:38:32.346Z,89
2022-09-10T00:39:32.412Z,89
2022-09-10T00:40:32.380Z,89
2022-09-10T00:41:32.391Z,89
2022-09-10T00:42:32.382Z,89
2022-09-10T00:43:32.390Z,89
2022-09-10T00:44:35.566Z,89
2022-09-10T00:45:32.472Z,89
2022-09-10T00:46:32.348Z,89
2022-09-10T00:47:32.386Z,89
2022-09-10T00:48:32.389Z,89
2022-09-10T00:49:32.400Z,89
2022-09-10T00:50:32.352Z,89
2022-09-10T00:51:32.386Z,89
2022-09-10T00:52:33.681Z,89
2022-09-10T00:53:32.402Z,90
2022-09-10T00:54:32.356Z,90
2022-09-10T00:55:32.378Z,90
2022-09-10T00:56:32.388Z,90
2022-09-10T00:57:32.377Z,90
2022-09-10T00:58:32.365Z,89
2022-09-10T00:59:32.399Z,89
2022-09-10T01:00:32.584Z,89
2022-09-10T01:01:32.382Z,89
2022-09-10T01:02:32.372Z,89
2022-09-10T01:03:32.382Z,89
2022-09-10T01:04:32.400Z,89
2022-09-10T01:05:32.365Z,89
2022-09-10T01:06:32.429Z,89
2022-09-10T01:07:32.411Z,89
2022-09-10T01:08:32.388Z,89
2022-09-10T01:09:32.378Z,89
2022-09-10T01:10:32.340Z,89
2022-09-10T01:11:34.647Z,90
2022-09-10T01:12:35.869Z,90
2022-09-10T01:13:32.372Z,90
2022-09-10T01:14:32.360Z,90
2022-09-10T01:15:32.375Z,90
2022-09-10T01:16:32.443Z,90
2022-09-10T01:17:32.357Z,90
2022-09-10T01:18:32.328Z,90
2022-09-10T01:19:32.369Z,90
2022-09-10T01:20:32.433Z,90
2022-09-10T01:21:32.373Z,90
2022-09-10T01:22:32.359Z,90
2022-09-10T01:23:32.384Z,90
2022-09-10T01:24:32.366Z,90
2022-09-10T01:25:32.361Z,90
2022-09-10T01:26:32.394Z,90
2022-09-10T01:27:32.368Z,90
2022-09-10T01:28:32.393Z,90
2022-09-10T01:29:32.344Z,90
2022-09-10T01:30:32.371Z,90
2022-09-10T01:31:32.465Z,90
2022-09-10T01:32:32.363Z,90
2022-09-10T01:33:32.368Z,90
2022-09-10T01:34:32.367Z,90
2022-09-10T01:35:32.358Z,90
2022-09-10T01:36:32.471Z,90
2022-09-10T01:37:32.401Z,90
2022-09-10T01:38:32.406Z,90
2022-09-10T01:39:32.622Z,90
2022-09-10T01:40:32.520Z,90
2022-09-10T01:41:32.531Z,90
2022-09-10T01:42:32.479Z,90
2022-09-10T01:43:32.544Z,90
2022-09-10T01:44:32.525Z,90
2022-09-10T01:45:32.567Z,90
2022-09-10T01:46:32.508Z,90
2022-09-10T01:47:32.466Z,90
2022-09-10T01:48:32.388Z,90
2022-09-10T01:49:32.365Z,90
2022-09-10T01:50:32.365Z,90
2022-09-10T01:51:32.391Z,90
2022-09-10T01:52:32.356Z,90
2022-09-10T01:53:32.367Z,90
2022-09-10T01:54:32.348Z,90
2022-09-10T01:55:32.372Z,90
2022-09-10T01:56:32.370Z,90
2022-09-10T01:57:32.385Z,90
2022-09-10T01:58:32.399Z,90
2022-09-10T01:59:32.439Z,90
2022-09-10T02:00:34.071Z,90
2022-09-10T02:01:32.440Z,90
2022-09-10T02:02:32.410Z,90
2022-09-10T02:03:32.379Z,91
2022-09-10T02:04:32.378Z,91
2022-09-10T02:05:32.376Z,91
2022-09-10T02:06:32.344Z,91
2022-09-10T02:07:32.353Z,91
2022-09-10T02:08:32.316Z,91
2022-09-10T02:09:32.336Z,91
2022-09-10T02:10:32.387Z,91
2022-09-10T02:11:32.352Z,91
2022-09-10T02:12:32.349Z,91
2022-09-10T02:13:32.338Z,91
2022-09-10T02:14:32.367Z,91
2022-09-10T02:15:34.566Z,91
2022-09-10T02:16:32.418Z,92
2022-09-10T02:17:32.377Z,92
2022-09-10T02:18:32.384Z,91
2022-09-10T02:19:32.382Z,91
2022-09-10T02:20:32.393Z,92
2022-09-10T02:21:32.350Z,92
2022-09-10T02:22:32.355Z,92
2022-09-10T02:23:32.356Z,91
2022-09-10T02:24:32.372Z,92
2022-09-10T02:25:32.348Z,92
2022-09-10T02:26:32.384Z,92
2022-09-10T02:27:32.370Z,92
2022-09-10T02:28:32.358Z,92
2022-09-10T02:29:32.353Z,91
2022-09-10T02:30:32.327Z,91
2022-09-10T02:31:32.399Z,91
2022-09-10T02:32:32.379Z,91
2022-09-10T02:33:32.380Z,91
2022-09-10T02:34:32.362Z,91
2022-09-10T02:35:32.384Z,91
2022-09-10T02:36:32.386Z,91
2022-09-10T02:37:32.337Z,91
2022-09-10T02:38:32.359Z,91
2022-09-10T02:39:32.397Z,91
2022-09-10T02:40:32.352Z,91
2022-09-10T02:41:32.387Z,91
2022-09-10T02:42:32.388Z,91
2022-09-10T02:43:32.354Z,91
2022-09-10T02:44:32.382Z,91
2022-09-10T02:45:32.409Z,91
2022-09-10T02:46:32.377Z,91
2022-09-10T02:47:32.409Z,91
2022-09-10T02:48:32.379Z,91
2022-09-10T02:49:32.368Z,91
2022-09-10T02:50:32.364Z,91
2022-09-10T02:51:32.383Z,91
2022-09-10T02:52:32.447Z,91
2022-09-10T02:53:32.378Z,91
2022-09-10T02:54:32.368Z,91
2022-09-10T02:55:32.400Z,91
2022-09-10T02:56:32.377Z,91
2022-09-10T02:57:32.336Z,91
2022-09-10T02:58:32.377Z,91
2022-09-10T02:59:32.353Z,91
2022-09-10T03:00:32.407Z,91
2022-09-10T03:01:32.333Z,91
2022-09-10T03:02:32.354Z,91
2022-09-10T03:03:32.347Z,91
2022-09-10T03:04:32.364Z,90
2022-09-10T03:05:32.354Z,90
2022-09-10T03:06:32.380Z,90
2022-09-10T03:07:32.561Z,90
2022-09-10T03:08:32.319Z,90
2022-09-10T03:09:32.341Z,90
2022-09-10T03:10:32.460Z,90
2022-09-10T03:11:32.500Z,90
2022-09-10T03:12:32.441Z,90
2022-09-10T03:13:32.358Z,90
2022-09-10T03:14:32.446Z,90
2022-09-10T03:15:32.345Z,90
2022-09-10T03:16:32.436Z,90
2022-09-10T03:17:32.397Z,90
2022-09-10T03:18:32.511Z,90
2022-09-10T03:19:32.461Z,90
2022-09-10T03:20:32.577Z,90
2022-09-10T03:21:32.432Z,90
2022-09-10T03:22:32.503Z,90
2022-09-10T03:23:32.517Z,90
2022-09-10T03:24:32.393Z,90
2022-09-10T03:25:32.385Z,90
2022-09-10T03:26:32.451Z,90
2022-09-10T03:27:32.523Z,90
2022-09-10T03:28:32.500Z,90
2022-09-10T03:29:32.311Z,90
2022-09-10T03:30:32.350Z,90
2022-09-10T03:31:32.491Z,90
2022-09-10T03:32:32.347Z,90
2022-09-10T03:33:32.334Z,91
2022-09-10T03:34:32.347Z,91
2022-09-10T03:35:32.370Z,91
2022-09-10T03:36:32.335Z,91
2022-09-10T03:37:32.340Z,91
2022-09-10T03:38:32.335Z,91
2022-09-10T03:39:32.422Z,91
2022-09-10T03:40:32.509Z,91
2022-09-10T03:41:32.456Z,91
2022-09-10T03:42:32.400Z,90
2022-09-10T03:43:32.360Z,91
2022-09-10T03:44:32.340Z,90
2022-09-10T03:45:32.376Z,90
2022-09-10T03:46:32.344Z,90
2022-09-10T03:47:32.347Z,90
2022-09-10T03:48:32.384Z,90
2022-09-10T03:49:32.325Z,90
2022-09-10T03:50:32.426Z,90
2022-09-10T03:51:32.358Z,90
2022-09-10T03:52:32.365Z,90
2022-09-10T03:53:32.323Z,90
2022-09-10T03:54:32.354Z,90
2022-09-10T03:55:32.370Z,90
2022-09-10T03:56:32.355Z,90
2022-09-10T03:57:32.321Z,90
2022-09-10T03:58:32.358Z,90
2022-09-10T03:59:32.348Z,90
2022-09-10T04:00:32.391Z,90
2022-09-10T04:01:32.492Z,90
2022-09-10T04:02:32.357Z,89
2022-09-10T04:03:32.342Z,89
2022-09-10T04:04:32.361Z,89
2022-09-10T04:05:32.330Z,89
2022-09-10T04:06:32.336Z,89
2022-09-10T04:07:32.334Z,89
2022-09-10T04:08:32.340Z,89
2022-09-10T04:09:32.321Z,89
2022-09-10T04:10:32.348Z,89
2022-09-10T04:11:32.363Z,89
2022-09-10T04:12:32.384Z,89
2022-09-10T04:13:32.330Z,89
2022-09-10T04:14:32.339Z,89
2022-09-10T04:15:32.430Z,89
2022-09-10T04:16:32.395Z,89
2022-09-10T04:17:32.305Z,89
2022-09-10T04:18:32.481Z,89
2022-09-10T04:19:32.464Z,89
2022-09-10T04:20:32.449Z,89
2022-09-10T04:21:32.326Z,88
2022-09-10T04:22:32.374Z,88
2022-09-10T04:23:32.403Z,88
2022-09-10T04:24:32.356Z,88
2022-09-10T04:25:32.329Z,88
2022-09-10T04:26:32.384Z,88
2022-09-10T04:27:32.369Z,88
2022-09-10T04:28:32.350Z,88
2022-09-10T04:29:32.347Z,88
2022-09-10T04:30:32.346Z,88
2022-09-10T04:31:32.405Z,88
2022-09-10T04:32:32.347Z,88
2022-09-10T04:33:32.337Z,88
2022-09-10T04:34:32.348Z,88
2022-09-10T04:35:32.346Z,88
2022-09-10T04:36:32.342Z,88
2022-09-10T04:37:32.317Z,88
2022-09-10T04:38:32.411Z,88
2022-09-10T04:39:32.439Z,88
2022-09-10T04:40:32.329Z,88
2022-09-10T04:41:32.331Z,88
2022-09-10T04:42:32.367Z,88
2022-09-10T04:43:32.364Z,88
2022-09-10T04:44:32.338Z,88
2022-09-10T04:45:32.382Z,88
2022-09-10T04:46:32.348Z,88
2022-09-10T04:47:32.335Z,88
2022-09-10T04:48:32.366Z,88
2022-09-10T04:49:32.325Z,88
2022-09-10T04:50:32.337Z,88
2022-09-10T04:51:32.377Z,87
2022-09-10T04:52:32.355Z,87
2022-09-10T04:53:32.327Z,87
2022-09-10T04:54:33.353Z,87
2022-09-10T04:55:32.348Z,87
2022-09-10T04:56:32.437Z,87
2022-09-10T04:57:32.319Z,87
2022-09-10T04:58:36.569Z,87
2022-09-10T04:59:32.346Z,87
2022-09-10T05:00:32.357Z,87
2022-09-10T05:01:32.340Z,87
2022-09-10T05:02:32.388Z,87
2022-09-10T05:03:32.440Z,87
2022-09-10T05:04:32.361Z,87
2022-09-10T05:05:32.328Z,87
2022-09-10T05:06:32.335Z,87
2022-09-10T05:07:32.344Z,87
2022-09-10T05:08:32.334Z,87
2022-09-10T05:09:32.317Z,87
2022-09-10T05:10:32.338Z,87
2022-09-10T05:11:32.350Z,87
2022-09-10T05:12:32.362Z,87
2022-09-10T05:13:32.332Z,87
2022-09-10T05:14:32.326Z,87
2022-09-10T05:15:32.344Z,87
2022-09-10T05:16:32.515Z,87
2022-09-10T05:17:32.337Z,87
2022-09-10T05:18:32.300Z,87
2022-09-10T05:19:32.377Z,87
2022-09-10T05:20:32.345Z,87
2022-09-10T05:21:32.427Z,87
2022-09-10T05:22:38.398Z,87
2022-09-10T05:23:32.327Z,87
2022-09-10T05:24:32.328Z,87
2022-09-10T05:25:32.325Z,87
2022-09-10T05:26:32.331Z,87
2022-09-10T05:27:32.329Z,87
2022-09-10T05:28:32.334Z,87
2022-09-10T05:29:32.391Z,87
2022-09-10T05:30:32.301Z,87
2022-09-10T05:31:32.405Z,87
2022-09-10T05:32:32.345Z,87
2022-09-10T05:33:32.420Z,87
2022-09-10T05:34:32.305Z,87
2022-09-10T05:35:32.350Z,86
2022-09-10T05:36:32.418Z,86
2022-09-10T05:37:32.337Z,86
2022-09-10T05:38:32.345Z,85
2022-09-10T05:39:32.425Z,85
2022-09-10T05:40:32.397Z,85
2022-09-10T05:41:32.352Z,85
2022-09-10T05:42:32.314Z,85
2022-09-10T05:43:32.328Z,85
2022-09-10T05:44:32.313Z,85
2022-09-10T05:45:32.363Z,85
2022-09-10T05:46:32.303Z,84
2022-09-10T05:47:32.348Z,84
2022-09-10T05:48:32.342Z,84
2022-09-10T05:49:32.321Z,84
2022-09-10T05:50:32.349Z,84
2022-09-10T05:51:32.337Z,84
2022-09-10T05:52:32.359Z,84
2022-09-10T05:53:32.357Z,84
2022-09-10T05:54:32.316Z,84
2022-09-10T05:55:32.349Z,84
2022-09-10T05:56:32.333Z,84
2022-09-10T05:57:32.322Z,84
2022-09-10T05:58:32.320Z,83
2022-09-10T05:59:32.334Z,83
2022-09-10T06:00:35.532Z,83
2022-09-10T06:01:32.333Z,83
2022-09-10T06:02:32.497Z,83
2022-09-10T06:03:32.374Z,83
2022-09-10T06:04:32.327Z,83
2022-09-10T06:05:32.354Z,82
2022-09-10T06:06:32.312Z,82
2022-09-10T06:07:32.338Z,82
2022-09-10T06:08:32.389Z,82
2022-09-10T06:09:32.320Z,82
2022-09-10T06:10:32.334Z,82
2022-09-10T06:11:32.488Z,81
2022-09-10T06:12:32.359Z,81
2022-09-10T06:13:32.335Z,81
2022-09-10T06:14:32.357Z,81
2022-09-10T06:15:32.327Z,80
2022-09-10T06:16:32.440Z,80
2022-09-10T06:17:32.321Z,80
2022-09-10T06:18:32.341Z,80
2022-09-10T06:19:32.339Z,80
2022-09-10T06:20:32.354Z,79
2022-09-10T06:21:32.292Z,79
2022-09-10T06:22:32.465Z,79
2022-09-10T06:23:32.325Z,79
2022-09-10T06:24:32.430Z,79
2022-09-10T06:25:32.313Z,79
2022-09-10T06:26:32.336Z,79
2022-09-10T06:27:32.323Z,79
2022-09-10T06:28:32.512Z,78
2022-09-10T06:29:32.376Z,78
2022-09-10T06:30:32.562Z,78
2022-09-10T06:31:32.368Z,78
2022-09-10T06:32:32.312Z,79
2022-09-10T06:33:32.327Z,78
2022-09-10T06:34:32.396Z,78
2022-09-10T06:35:32.349Z,78
2022-09-10T06:36:32.342Z,78
2022-09-10T06:37:32.304Z,78
2022-09-10T06:38:32.450Z,77
2022-09-10T06:39:32.443Z,77
2022-09-10T06:40:32.317Z,77
2022-09-10T06:41:32.329Z,77
2022-09-10T06:42:32.371Z,77
2022-09-10T06:43:32.347Z,77
2022-09-10T06:44:32.335Z,77
2022-09-10T06:45:32.442Z,77
2022-09-10T06:47:09.583Z,76
2022-09-10T06:48:32.347Z,76
2022-09-10T06:48:38.721Z,76
2022-09-10T06:49:32.331Z,76
2022-09-10T06:50:32.340Z,77
2022-09-10T06:51:32.321Z,77
2022-09-10T06:52:32.345Z,76
2022-09-10T06:53:32.329Z,76
2022-09-10T06:54:32.328Z,76
2022-09-10T06:55:32.358Z,76
2022-09-10T06:56:32.345Z,75
2022-09-10T06:57:32.331Z,75
2022-09-10T06:58:32.328Z,75
2022-09-10T06:59:32.324Z,75
2022-09-10T07:00:32.342Z,75
2022-09-10T07:01:32.444Z,75
2022-09-10T07:02:32.520Z,75
2022-09-10T07:03:32.320Z,75
2022-09-10T07:04:32.354Z,75
2022-09-10T07:05:32.300Z,75
2022-09-10T07:06:32.316Z,75
2022-09-10T07:07:32.320Z,75
2022-09-10T07:08:32.429Z,75
2022-09-10T07:09:32.390Z,75
2022-09-10T07:10:32.468Z,75
2022-09-10T07:11:32.333Z,75
2022-09-10T07:12:32.356Z,75
2022-09-10T07:13:32.316Z,75
2022-09-10T07:14:32.317Z,75
2022-09-10T07:15:32.384Z,75
2022-09-10T07:16:32.334Z,75
2022-09-10T07:17:32.338Z,75
2022-09-10T07:18:32.349Z,75
2022-09-10T07:19:32.336Z,75
2022-09-10T07:20:32.334Z,75
2022-09-10T07:21:32.344Z,75
2022-09-10T07:22:32.335Z,75
2022-09-10T07:23:32.327Z,75
2022-09-10T07:24:32.325Z,76
2022-09-10T07:25:32.348Z,75
2022-09-10T07:26:32.346Z,75
2022-09-10T07:27:32.364Z,76
2022-09-10T07:28:32.337Z,75
2022-09-10T07:29:32.343Z,75
2022-09-10T07:30:32.510Z,75
2022-09-10T07:31:32.307Z,75
2022-09-10T07:32:32.336Z,75
2022-09-10T07:33:32.409Z,75
2022-09-10T07:34:32.349Z,75
2022-09-10T07:35:32.333Z,75
2022-09-10T07:36:32.314Z,75
2022-09-10T07:37:32.384Z,75
2022-09-10T07:38:32.314Z,75
2022-09-10T07:39:32.323Z,75
2022-09-10T07:40:32.338Z,75
2022-09-10T07:41:32.353Z,75
2022-09-10T07:42:32.318Z,75
2022-09-10T07:43:32.340Z,75
2022-09-10T07:44:32.337Z,75
2022-09-10T07:45:32.345Z,75
2022-09-10T07:46:32.362Z,75
2022-09-10T07:47:32.448Z,75
2022-09-10T07:48:32.331Z,75
2022-09-10T07:49:32.322Z,75
2022-09-10T07:50:32.567Z,75
2022-09-10T07:51:32.300Z,75
2022-09-10T07:52:32.460Z,75
2022-09-10T07:53:32.343Z,75
2022-09-10T07:54:32.343Z,75
2022-09-10T07:55:32.295Z,75
2022-09-10T07:56:32.326Z,75
2022-09-10T07:57:32.321Z,75
2022-09-10T07:58:32.457Z,75
2022-09-10T07:59:32.484Z,75
2022-09-10T08:00:32.314Z,75
2022-09-10T08:01:32.426Z,75
2022-09-10T08:02:32.361Z,75
2022-09-10T08:03:32.341Z,75
2022-09-10T08:04:36.399Z,75
2022-09-10T08:05:32.330Z,75
2022-09-10T08:06:32.474Z,75
2022-09-10T08:07:32.339Z,75
2022-09-10T08:08:32.342Z,75
2022-09-10T08:09:32.332Z,75
2022-09-10T08:10:32.359Z,75
2022-09-10T08:11:32.339Z,75
2022-09-10T08:12:32.437Z,75
2022-09-10T08:13:32.333Z,75
2022-09-10T08:14:32.291Z,74
2022-09-10T08:15:32.323Z,74
2022-09-10T08:16:32.438Z,74
2022-09-10T08:17:32.348Z,74
2022-09-10T08:18:32.308Z,74
2022-09-10T08:19:32.317Z,74
2022-09-10T08:20:32.324Z,74
2022-09-10T08:21:32.340Z,74
2022-09-10T08:22:32.303Z,74
2022-09-10T08:23:32.327Z,74
2022-09-10T08:24:32.598Z,74
2022-09-10T08:25:32.373Z,74
2022-09-10T08:26:32.297Z,74
2022-09-10T08:27:32.331Z,74
2022-09-10T08:28:32.507Z,74
2022-09-10T08:29:32.449Z,74
2022-09-10T08:30:32.323Z,74
2022-09-10T08:31:32.471Z,74
2022-09-10T08:32:32.323Z,74
2022-09-10T08:33:32.324Z,73
2022-09-10T08:34:32.319Z,73
2022-09-10T08:35:32.317Z,73
2022-09-10T08:36:32.313Z,73
2022-09-10T08:37:32.317Z,73
2022-09-10T08:38:32.531Z,73
2022-09-10T08:39:32.323Z,73
2022-09-10T08:40:32.482Z,72
2022-09-10T08:41:32.353Z,72
2022-09-10T08:42:32.316Z,72
2022-09-10T08:43:32.425Z,72
2022-09-10T08:44:32.324Z,72
2022-09-10T08:45:32.377Z,72
2022-09-10T08:46:32.394Z,72
2022-09-10T08:47:32.320Z,72
2022-09-10T08:48:32.440Z,72
2022-09-10T08:49:32.319Z,72
2022-09-10T08:50:32.391Z,72
2022-09-10T08:51:32.326Z,72
2022-09-10T08:52:32.387Z,72
2022-09-10T08:53:32.303Z,73
2022-09-10T08:54:32.318Z,73
2022-09-10T08:55:32.489Z,73
2022-09-10T08:56:32.306Z,73
2022-09-10T08:57:32.299Z,73
2022-09-10T08:58:32.330Z,73
2022-09-10T08:59:32.341Z,73
2022-09-10T09:00:33.148Z,73
2022-09-10T09:01:32.373Z,73
2022-09-10T09:02:48.191Z,73
2022-09-10T09:03:32.396Z,73
2022-09-10T09:04:32.311Z,73
2022-09-10T09:05:32.457Z,73
2022-09-10T09:06:32.291Z,73
2022-09-10T09:07:32.343Z,72
2022-09-10T09:08:32.282Z,72
2022-09-10T09:09:32.314Z,72
2022-09-10T09:10:32.298Z,72
2022-09-10T09:11:32.314Z,72
2022-09-10T09:12:32.317Z,72
2022-09-10T09:13:32.355Z,72
2022-09-10T09:14:32.307Z,72
2022-09-10T09:15:32.368Z,72
2022-09-10T09:16:32.322Z,71
2022-09-10T09:17:32.362Z,70
2022-09-10T09:18:32.412Z,70
2022-09-10T09:19:32.513Z,70
2022-09-10T09:20:32.317Z,69
2022-09-10T09:21:32.314Z,69
2022-09-10T09:22:33.501Z,69
2022-09-10T09:23:32.331Z,69
2022-09-10T09:24:32.326Z,69
2022-09-10T09:25:32.304Z,68
2022-09-10T09:26:32.314Z,68
2022-09-10T09:27:32.299Z,68
2022-09-10T09:28:32.344Z,66
2022-09-10T09:29:32.285Z,67
2022-09-10T09:30:32.293Z,67
2022-09-10T09:31:32.319Z,67
2022-09-10T09:32:32.324Z,66
2022-09-10T09:33:32.299Z,66
2022-09-10T09:34:32.324Z,66
2022-09-10T09:35:32.295Z,66
2022-09-10T09:36:32.325Z,66
2022-09-10T09:37:32.302Z,66
2022-09-10T09:38:32.358Z,66
2022-09-10T09:39:32.329Z,65
2022-09-10T09:40:32.315Z,65
2022-09-10T09:41:32.288Z,65
2022-09-10T09:42:32.329Z,65
2022-09-10T09:43:32.326Z,62
2022-09-10T09:44:32.305Z,62
2022-09-10T09:45:32.383Z,62
2022-09-10T09:46:32.318Z,62
2022-09-10T09:47:53.099Z,62
2022-09-10T09:48:57.091Z,62
2022-09-10T09:50:01.643Z,62
2022-09-10T09:51:05.038Z,63
2022-09-10T09:52:09.126Z,63
2022-09-10T09:53:13.058Z,63
2022-09-10T09:54:56.581Z,64
2022-09-10T09:55:21.101Z,65
2022-09-10T09:56:25.073Z,65
2022-09-10T09:57:29.311Z,66
2022-09-10T09:58:32.348Z,66
2022-09-10T09:59:32.351Z,67
2022-09-10T10:00:34.832Z,67
2022-09-10T10:01:32.361Z,67
2022-09-10T10:02:32.348Z,67
2022-09-10T10:03:32.324Z,68
2022-09-10T10:04:32.347Z,68
2022-09-10T10:05:32.341Z,68
2022-09-10T10:06:32.309Z,68
2022-09-10T10:07:32.373Z,68
2022-09-10T10:08:32.385Z,67
2022-09-10T10:09:32.280Z,68
2022-09-10T10:10:32.334Z,68
2022-09-10T10:11:32.319Z,68
2022-09-10T10:12:32.379Z,67
2022-09-10T10:13:32.776Z,67
2022-09-10T10:14:32.334Z,67
2022-09-10T10:15:32.477Z,66
2022-09-10T10:16:32.318Z,67
2022-09-10T10:17:32.307Z,65
2022-09-10T10:18:32.329Z,65
2022-09-10T10:19:32.300Z,65
2022-09-10T10:20:32.330Z,63
2022-09-10T10:21:32.305Z,63
2022-09-10T10:22:32.307Z,63
2022-09-10T10:23:32.426Z,63
2022-09-10T10:24:32.327Z,63
2022-09-10T10:25:32.300Z,64
2022-09-10T10:26:32.300Z,64
2022-09-10T10:27:32.357Z,64
2022-09-10T10:28:32.397Z,63
2022-09-10T10:29:32.304Z,60
2022-09-10T10:30:32.332Z,61
2022-09-10T10:31:32.300Z,60
2022-09-10T10:32:32.316Z,56
2022-09-10T10:33:32.306Z,56
2022-09-10T10:34:32.319Z,56
2022-09-10T10:35:32.384Z,55
2022-09-10T10:36:32.319Z,56
2022-09-10T10:37:32.319Z,54
2022-09-10T10:38:32.439Z,53
2022-09-10T10:39:32.334Z,53
2022-09-10T10:40:32.336Z,53
2022-09-10T10:41:32.303Z,54
2022-09-10T10:42:32.306Z,54
2022-09-10T10:43:32.339Z,55
2022-09-10T10:44:32.301Z,55
2022-09-10T10:45:32.352Z,54
2022-09-10T10:46:32.320Z,55
2022-09-10T10:47:32.301Z,55
2022-09-10T10:48:32.354Z,55
2022-09-10T10:49:32.295Z,56
2022-09-10T10:50:32.318Z,55
2022-09-10T10:51:32.333Z,55
2022-09-10T10:52:32.337Z,55
2022-09-10T10:53:32.304Z,55
2022-09-10T10:54:32.297Z,54
2022-09-10T10:55:32.298Z,54
2022-09-10T10:56:32.315Z,54
2022-09-10T10:57:32.291Z,55
2022-09-10T10:58:32.312Z,55
2022-09-10T10:59:32.319Z,56
2022-09-10T11:00:32.284Z,56
2022-09-10T11:01:32.359Z,56
2022-09-10T11:02:32.372Z,57
2022-09-10T11:03:32.311Z,57
2022-09-10T11:04:32.321Z,58
2022-09-10T11:05:32.295Z,58
2022-09-10T11:06:32.362Z,58
2022-09-10T11:07:32.321Z,58
2022-09-10T11:08:32.562Z,59
2022-09-10T11:09:32.332Z,59
2022-09-10T11:10:33.302Z,59
2022-09-10T11:11:32.287Z,59
2022-09-10T11:12:32.329Z,59
2022-09-10T11:13:32.333Z,59
2022-09-10T11:14:32.382Z,59
2022-09-10T11:15:32.338Z,59
2022-09-10T11:16:32.319Z,60
2022-09-10T11:17:32.292Z,59
2022-09-10T11:18:32.354Z,59
2022-09-10T11:19:32.300Z,59
2022-09-10T11:20:32.335Z,59
2022-09-10T11:21:32.435Z,59
2022-09-10T11:22:32.322Z,59
2022-09-10T11:23:32.286Z,59
2022-09-10T11:24:32.315Z,59
2022-09-10T11:25:32.296Z,59
2022-09-10T11:26:32.313Z,60
2022-09-10T11:27:32.307Z,59
2022-09-10T11:28:32.358Z,59
2022-09-10T11:29:32.308Z,60
2022-09-10T11:30:32.341Z,60
2022-09-10T11:31:32.288Z,60
2022-09-10T11:32:32.297Z,59
2022-09-10T11:33:32.306Z,59
2022-09-10T11:34:32.336Z,59
2022-09-10T11:35:32.257Z,60
2022-09-10T11:36:32.375Z,60
2022-09-10T11:37:32.322Z,60
2022-09-10T11:38:32.356Z,60
2022-09-10T11:39:32.327Z,60
2022-09-10T11:40:32.325Z,60
2022-09-10T11:41:32.305Z,60
2022-09-10T11:42:32.305Z,60
2022-09-10T11:43:32.272Z,60
2022-09-10T11:44:36.259Z,60
2022-09-10T11:45:32.304Z,61
2022-09-10T11:46:32.391Z,61
2022-09-10T11:47:32.284Z,61
2022-09-10T11:48:32.347Z,61
2022-09-10T11:49:32.323Z,61
2022-09-10T11:50:34.504Z,61
2022-09-10T11:51:32.294Z,62
2022-09-10T11:52:32.316Z,62
2022-09-10T11:53:32.321Z,62
2022-09-10T11:54:32.324Z,62
2022-09-10T11:55:32.288Z,62
2022-09-10T11:56:32.301Z,63
2022-09-10T11:57:32.317Z,62
2022-09-10T11:58:32.372Z,63
2022-09-10T11:59:32.285Z,62
2022-09-10T12:00:32.298Z,63
2022-09-10T12:01:32.293Z,63
2022-09-10T12:02:32.303Z,62
2022-09-10T12:03:32.363Z,63
2022-09-10T12:04:34.117Z,63
2022-09-10T12:05:32.267Z,63
2022-09-10T12:06:32.407Z,63
2022-09-10T12:07:32.274Z,63
2022-09-10T12:08:32.248Z,63
2022-09-10T12:09:32.306Z,63
2022-09-10T12:10:32.323Z,63
2022-09-10T12:11:32.309Z,63
2022-09-10T12:12:32.292Z,63
2022-09-10T12:13:32.313Z,63
2022-09-10T12:14:32.408Z,63
2022-09-10T12:15:32.281Z,63
2022-09-10T12:16:32.312Z,63
2022-09-10T12:17:32.295Z,63
2022-09-10T12:18:32.304Z,63
2022-09-10T12:19:32.280Z,63
2022-09-10T12:20:32.299Z,63
2022-09-10T12:21:32.293Z,63
2022-09-10T12:22:32.277Z,63
2022-09-10T12:23:32.346Z,63
2022-09-10T12:24:32.291Z,63
2022-09-10T12:25:34.231Z,63
2022-09-10T12:26:32.269Z,63
2022-09-10T12:27:32.301Z,63
2022-09-10T12:28:32.303Z,63
2022-09-10T12:29:32.338Z,63
2022-09-10T12:30:32.265Z,64
2022-09-10T12:31:32.329Z,63
2022-09-10T12:32:32.289Z,64
2022-09-10T12:33:32.329Z,64
2022-09-10T12:34:32.309Z,64
2022-09-10T12:35:32.295Z,64
2022-09-10T12:36:32.464Z,64
2022-09-10T12:37:32.348Z,64
2022-09-10T12:38:32.291Z,65
2022-09-10T12:39:32.310Z,65
2022-09-10T12:40:32.526Z,65
2022-09-10T12:41:32.289Z,65
2022-09-10T12:42:32.295Z,66
2022-09-10T12:43:32.351Z,66
2022-09-10T12:44:32.287Z,66
2022-09-10T12:45:32.295Z,66
2022-09-10T12:46:32.375Z,66
2022-09-10T12:47:32.309Z,66
2022-09-10T12:48:32.423Z,67
2022-09-10T12:49:32.330Z,67
2022-09-10T12:50:32.293Z,67
2022-09-10T12:51:32.484Z,67
2022-09-10T12:52:32.279Z,67
2022-09-10T12:53:32.359Z,68
2022-09-10T12:54:32.299Z,68
2022-09-10T12:55:32.329Z,68
2022-09-10T12:56:32.346Z,68
2022-09-10T12:57:32.289Z,68
2022-09-10T12:58:32.334Z,68
2022-09-10T12:59:32.308Z,69
2022-09-10T13:00:32.363Z,68
2022-09-10T13:01:32.365Z,69
2022-09-10T13:02:32.562Z,69
2022-09-10T13:03:32.375Z,69
2022-09-10T13:04:32.305Z,68
2022-09-10T13:05:32.308Z,69
2022-09-10T13:06:32.283Z,69
2022-09-10T13:07:32.349Z,69
2022-09-10T13:08:32.307Z,68
2022-09-10T13:09:32.284Z,69
2022-09-10T13:10:32.340Z,68
2022-09-10T13:11:32.360Z,69
2022-09-10T13:12:32.308Z,69
2022-09-10T13:13:32.345Z,69
2022-09-10T13:14:32.289Z,69
2022-09-10T13:15:32.363Z,69
2022-09-10T13:16:32.299Z,69
2022-09-10T13:17:32.270Z,68
2022-09-10T13:18:32.329Z,68
2022-09-10T13:19:32.271Z,68
2022-09-10T13:20:32.284Z,68
2022-09-10T13:21:32.291Z,68
2022-09-10T13:22:32.301Z,68
2022-09-10T13:23:32.470Z,68
2022-09-10T13:24:32.463Z,68
2022-09-10T13:25:32.289Z,68
2022-09-10T13:26:32.290Z,68
2022-09-10T13:27:32.262Z,68
2022-09-10T13:28:32.278Z,69
2022-09-10T13:29:32.312Z,69
2022-09-10T13:30:32.414Z,69
2022-09-10T13:31:33.471Z,69
2022-09-10T13:32:32.303Z,69
2022-09-10T13:33:32.363Z,69
2022-09-10T13:34:32.322Z,70
2022-09-10T13:35:32.427Z,70
2022-09-10T13:36:32.410Z,70
2022-09-10T13:37:32.261Z,70
2022-09-10T13:38:32.290Z,70
2022-09-10T13:39:32.412Z,70
2022-09-10T13:40:32.292Z,70
2022-09-10T13:41:32.379Z,70
2022-09-10T13:42:35.599Z,70
2022-09-10T13:43:32.394Z,70
2022-09-10T13:44:32.269Z,70
2022-09-10T13:45:32.275Z,70
2022-09-10T13:46:32.328Z,70
2022-09-10T13:47:32.427Z,70
2022-09-10T13:48:32.316Z,70
2022-09-10T13:49:32.278Z,69
2022-09-10T13:50:32.346Z,69
2022-09-10T13:51:32.281Z,69
2022-09-10T13:52:32.320Z,70
2022-09-10T13:53:32.406Z,69
2022-09-10T13:54:32.296Z,69
2022-09-10T13:55:32.291Z,69
2022-09-10T13:56:32.293Z,68
2022-09-10T13:57:32.259Z,68
2022-09-10T13:58:32.277Z,68
2022-09-10T13:59:32.323Z,67
2022-09-10T14:00:32.308Z,67
2022-09-10T14:01:32.351Z,67
2022-09-10T14:02:32.319Z,67
2022-09-10T14:03:32.562Z,67
2022-09-10T14:04:32.304Z,66
2022-09-10T14:05:32.290Z,66
2022-09-10T14:06:32.303Z,66
2022-09-10T14:07:32.299Z,66
2022-09-10T14:08:32.319Z,66
2022-09-10T14:09:32.389Z,66
2022-09-10T14:10:32.304Z,66
2022-09-10T14:11:32.279Z,66
2022-09-10T14:12:32.294Z,66
2022-09-10T14:13:32.291Z,66
2022-09-10T14:14:32.314Z,66
2022-09-10T14:15:32.301Z,66
2022-09-10T14:16:32.265Z,65